createdAt,value
2023-03-31T00:02:15.436Z,12.55
2023-03-31T00:04:46.729Z,13.18
2023-03-31T00:07:16.205Z,10.27
2023-03-31T00:09:46.616Z,9.15
2023-03-31T00:12:14.722Z,10.77
2023-03-31T00:14:42.897Z,8.82
2023-03-31T00:17:10.698Z,12.48
2023-03-31T00:19:40.224Z,9.60
2023-03-31T00:22:07.249Z,10.63
2023-03-31T00:24:34.431Z,11.43
2023-03-31T00:27:03.039Z,8.52
2023-03-31T00:29:31.407Z,8.40
2023-03-31T00:31:59.793Z,9.82
2023-03-31T00:34:27.619Z,7.55
2023-03-31T00:36:57.925Z,9.10
2023-03-31T00:39:24.815Z,9.48
2023-03-31T00:41:51.842Z,10.27
2023-03-31T00:44:27.709Z,7.95
2023-03-31T00:47:12.916Z,8.40
2023-03-31T00:49:48.709Z,12.15
2023-03-31T00:52:22.546Z,13.82
2023-03-31T00:54:57.929Z,11.07
2023-03-31T00:57:28.655Z,12.98
2023-03-31T01:00:12.702Z,15.95
2023-03-31T01:02:41.688Z,12.02
2023-03-31T01:05:09.319Z,12.93
2023-03-31T01:07:43.383Z,11.98
2023-03-31T01:10:11.187Z,10.77
2023-03-31T01:12:41.100Z,10.18
2023-03-31T01:15:09.647Z,11.32
2023-03-31T01:17:37.474Z,15.52
2023-03-31T01:20:36.517Z,9.90
2023-03-31T01:23:31.278Z,12.50
2023-03-31T01:26:10.227Z,11.32
2023-03-31T01:28:39.879Z,12.27
2023-03-31T01:31:21.899Z,9.38
2023-03-31T01:34:01.044Z,10.23
2023-03-31T01:36:49.861Z,11.15
2023-03-31T01:39:40.998Z,9.18
2023-03-31T01:42:23.151Z,11.20
2023-03-31T01:45:01.345Z,10.73
2023-03-31T01:47:40.291Z,10.05
2023-03-31T01:50:24.866Z,12.77
2023-03-31T01:53:05.861Z,15.02
2023-03-31T01:55:54.993Z,12.38
2023-03-31T01:58:26.308Z,10.85
2023-03-31T02:01:03.734Z,12.68
2023-03-31T02:03:48.359Z,11.65
2023-03-31T02:06:20.536Z,11.95
2023-03-31T02:08:53.783Z,11.35
2023-03-31T02:11:21.869Z,12.98
2023-03-31T02:13:52.510Z,12.18
2023-03-31T02:16:26.645Z,15.27
2023-03-31T02:19:02.419Z,12.80
2023-03-31T02:21:36.886Z,10.80
2023-03-31T02:24:08.044Z,10.38
2023-03-31T02:26:41.512Z,10.32
2023-03-31T02:29:08.617Z,9.90
2023-03-31T02:31:44.859Z,13.75
2023-03-31T02:34:11.693Z,14.27
2023-03-31T02:36:38.647Z,16.02
2023-03-31T02:39:09.839Z,13.98
2023-03-31T02:41:37.418Z,16.17
2023-03-31T02:44:04.425Z,13.07
2023-03-31T02:46:32.085Z,13.52
2023-03-31T02:49:02.542Z,12.95
2023-03-31T02:52:11.537Z,11.63
2023-03-31T02:55:30.632Z,9.75
2023-03-31T02:58:31.695Z,10.50
2023-03-31T03:01:12.231Z,13.07
2023-03-31T03:03:51.214Z,10.70
2023-03-31T03:06:37.644Z,15.02
2023-03-31T03:09:35.173Z,12.85
2023-03-31T03:12:14.120Z,9.15
2023-03-31T03:14:51.521Z,10.10
2023-03-31T03:17:36.204Z,13.35
2023-03-31T03:20:09.499Z,13.13
2023-03-31T03:22:37.699Z,12.85
2023-03-31T03:25:06.207Z,14.15
2023-03-31T03:27:32.974Z,12.57
2023-03-31T03:29:59.829Z,13.70
2023-03-31T03:32:26.588Z,16.67
2023-03-31T03:34:53.346Z,14.38
2023-03-31T03:37:20.342Z,13.65
2023-03-31T03:39:47.306Z,14.02
2023-03-31T03:42:14.381Z,14.45
2023-03-31T03:44:41.165Z,14.50
2023-03-31T03:47:07.974Z,11.73
2023-03-31T03:49:34.806Z,12.80
2023-03-31T03:52:01.618Z,11.88
2023-03-31T03:54:28.368Z,17.23
2023-03-31T03:56:55.671Z,12.35
2023-03-31T03:59:22.609Z,15.35
2023-03-31T04:01:49.528Z,15.05
2023-03-31T04:04:16.519Z,13.88
2023-03-31T04:06:43.370Z,15.18
2023-03-31T04:09:10.664Z,10.57
2023-03-31T04:11:37.368Z,16.13
2023-03-31T04:14:04.237Z,17.60
2023-03-31T04:16:32.335Z,14.00
2023-03-31T04:18:59.745Z,15.20
2023-03-31T04:21:26.509Z,13.50
2023-03-31T04:24:04.747Z,19.52
2023-03-31T04:26:43.724Z,15.50
2023-03-31T04:29:16.275Z,12.65
2023-03-31T04:31:44.046Z,13.55
2023-03-31T04:34:13.761Z,16.65
2023-03-31T04:36:42.826Z,13.35
2023-03-31T04:39:12.962Z,14.70
2023-03-31T04:41:39.734Z,18.42
2023-03-31T04:44:06.718Z,13.93
2023-03-31T04:46:35.273Z,15.85
2023-03-31T04:49:02.877Z,18.85
2023-03-31T04:51:29.704Z,18.05
2023-03-31T04:53:56.692Z,23.13
2023-03-31T04:56:23.507Z,17.00
2023-03-31T04:58:50.282Z,15.48
2023-03-31T05:01:20.936Z,20.73
2023-03-31T05:03:48.295Z,16.80
2023-03-31T05:06:16.564Z,17.10
2023-03-31T05:08:44.347Z,15.43
2023-03-31T05:11:11.306Z,15.10
2023-03-31T05:13:38.249Z,17.63
2023-03-31T05:16:14.478Z,20.67
2023-03-31T05:18:41.968Z,17.35
2023-03-31T05:21:14.407Z,20.58
2023-03-31T05:23:42.055Z,22.48
2023-03-31T05:26:09.557Z,21.17
2023-03-31T05:28:36.440Z,17.13
2023-03-31T05:31:04.485Z,18.27
2023-03-31T05:33:31.712Z,17.60
2023-03-31T05:36:00.259Z,19.50
2023-03-31T05:38:31.624Z,15.93
2023-03-31T05:40:58.620Z,17.40
2023-03-31T05:43:25.724Z,18.00
2023-03-31T05:45:52.732Z,22.83
2023-03-31T05:48:19.757Z,19.02
2023-03-31T05:50:46.610Z,18.85
2023-03-31T05:53:13.404Z,19.73
2023-03-31T05:55:40.323Z,18.25
2023-03-31T05:58:09.046Z,16.33
2023-03-31T06:00:37.957Z,19.33
2023-03-31T06:03:07.881Z,17.65
2023-03-31T06:05:35.675Z,18.63
2023-03-31T06:08:02.605Z,19.48
2023-03-31T06:10:29.737Z,19.45
2023-03-31T06:12:56.604Z,17.33
2023-03-31T06:15:23.520Z,19.02
2023-03-31T06:17:50.312Z,17.63
2023-03-31T06:20:27.838Z,15.48
2023-03-31T06:22:55.502Z,17.42
2023-03-31T06:25:22.248Z,20.90
2023-03-31T06:27:49.004Z,19.52
2023-03-31T06:30:15.919Z,20.75
2023-03-31T06:32:42.643Z,17.67
2023-03-31T06:35:09.781Z,18.67
2023-03-31T06:37:36.594Z,18.52
2023-03-31T06:40:04.544Z,17.85
2023-03-31T06:42:31.838Z,22.27
2023-03-31T06:44:58.754Z,20.50
2023-03-31T06:47:25.569Z,19.25
2023-03-31T06:49:52.332Z,20.23
2023-03-31T06:52:19.247Z,23.33
2023-03-31T06:54:46.065Z,25.25
2023-03-31T06:57:13.202Z,18.40
2023-03-31T06:59:40.011Z,18.77
2023-03-31T07:02:07.594Z,21.88
2023-03-31T07:04:34.824Z,20.88
2023-03-31T07:07:01.978Z,21.73
2023-03-31T07:09:28.784Z,20.45
2023-03-31T07:11:56.604Z,22.80
2023-03-31T07:14:23.915Z,18.20
2023-03-31T07:16:50.959Z,23.10
2023-03-31T07:19:17.982Z,22.85
2023-03-31T07:21:45.044Z,24.98
2023-03-31T07:24:11.930Z,21.73
2023-03-31T07:26:38.660Z,25.08
2023-03-31T07:29:06.187Z,20.70
2023-03-31T07:31:33.114Z,21.67
2023-03-31T07:34:01.650Z,24.48
2023-03-31T07:36:28.923Z,18.13
2023-03-31T07:38:55.686Z,20.42
2023-03-31T07:41:23.214Z,18.55
2023-03-31T07:43:51.025Z,20.02
2023-03-31T07:46:19.274Z,20.88
2023-03-31T07:48:47.071Z,18.77
2023-03-31T07:51:19.535Z,20.38
2023-03-31T07:53:47.010Z,19.30
2023-03-31T07:56:13.861Z,17.77
2023-03-31T07:58:40.650Z,19.73
2023-03-31T08:01:08.271Z,19.30
2023-03-31T08:03:35.317Z,20.05
2023-03-31T08:06:02.256Z,19.67
2023-03-31T08:08:29.230Z,20.70
2023-03-31T08:10:55.933Z,19.63
2023-03-31T08:13:22.714Z,21.17
2023-03-31T08:15:49.589Z,16.50
2023-03-31T08:18:16.708Z,17.70
2023-03-31T08:20:43.481Z,19.88
2023-03-31T08:23:12.163Z,20.17
2023-03-31T08:25:38.936Z,16.35
2023-03-31T08:28:06.848Z,18.92
2023-03-31T08:30:33.840Z,17.73
2023-03-31T08:33:00.792Z,16.67
2023-03-31T08:35:27.649Z,15.60
2023-03-31T08:37:54.446Z,18.17
2023-03-31T08:40:25.345Z,15.98
2023-03-31T08:42:56.317Z,16.23
2023-03-31T08:45:34.321Z,16.80
2023-03-31T08:48:08.171Z,16.42
2023-03-31T08:50:39.488Z,14.93
2023-03-31T08:53:12.826Z,17.80
2023-03-31T08:55:51.665Z,15.57
2023-03-31T08:58:42.178Z,15.27
2023-03-31T09:01:17.024Z,14.30
2023-03-31T09:03:56.180Z,16.85
2023-03-31T09:06:32.598Z,13.75
2023-03-31T09:09:02.503Z,13.82
2023-03-31T09:11:40.051Z,13.70
2023-03-31T09:14:34.629Z,10.43
2023-03-31T09:17:24.545Z,12.32
2023-03-31T09:20:00.254Z,16.33
2023-03-31T09:22:32.405Z,13.40
2023-03-31T09:25:07.865Z,12.93
2023-03-31T09:27:37.465Z,13.07
2023-03-31T09:30:14.741Z,13.18
2023-03-31T09:32:41.786Z,12.68
2023-03-31T09:35:21.641Z,13.80
2023-03-31T09:37:49.649Z,13.32
2023-03-31T09:40:22.323Z,11.18
2023-03-31T09:42:57.164Z,7.95
2023-03-31T09:45:24.089Z,11.30
2023-03-31T09:47:54.955Z,13.93
2023-03-31T09:50:25.400Z,10.88
2023-03-31T09:52:56.535Z,13.45
2023-03-31T09:55:39.632Z,9.73
2023-03-31T09:58:11.922Z,12.30
2023-03-31T10:00:42.322Z,10.40
2023-03-31T10:03:13.349Z,10.85
2023-03-31T10:05:52.295Z,14.07
2023-03-31T10:08:28.147Z,10.27
2023-03-31T10:11:07.251Z,11.20
2023-03-31T10:13:58.818Z,10.25
2023-03-31T10:16:43.133Z,9.48
2023-03-31T10:19:31.755Z,15.50
2023-03-31T10:22:26.456Z,12.85
2023-03-31T10:24:53.864Z,9.75
2023-03-31T10:27:27.943Z,13.02
2023-03-31T10:30:03.025Z,16.27
2023-03-31T10:32:34.757Z,11.18
2023-03-31T10:35:08.794Z,11.73
2023-03-31T10:37:36.565Z,10.98
2023-03-31T10:40:23.526Z,10.38
2023-03-31T10:43:01.448Z,12.00
2023-03-31T10:45:37.816Z,11.43
2023-03-31T10:48:16.629Z,11.57
2023-03-31T10:50:43.691Z,12.57
2023-03-31T10:53:15.828Z,11.77
2023-03-31T10:56:08.045Z,9.38
2023-03-31T10:59:05.858Z,10.57
2023-03-31T11:01:45.534Z,11.30
2023-03-31T11:05:05.761Z,12.82
2023-03-31T11:08:09.786Z,13.35
2023-03-31T11:11:12.150Z,8.88
2023-03-31T11:13:56.368Z,8.68
2023-03-31T11:16:48.330Z,9.25
2023-03-31T11:19:28.662Z,9.52
2023-03-31T11:22:01.493Z,11.38
2023-03-31T11:24:44.819Z,9.85
2023-03-31T11:27:24.318Z,13.15
2023-03-31T11:30:12.419Z,10.65
2023-03-31T11:33:06.572Z,11.15
2023-03-31T11:35:59.613Z,11.27
2023-03-31T11:38:44.683Z,7.65
2023-03-31T11:41:17.526Z,8.05
2023-03-31T11:43:49.718Z,8.82
2023-03-31T11:46:19.064Z,12.07
2023-03-31T11:48:59.813Z,8.55
2023-03-31T11:51:38.833Z,8.95
2023-03-31T11:54:12.139Z,8.15
2023-03-31T11:56:41.394Z,6.63
2023-03-31T11:59:14.371Z,9.48
2023-03-31T12:02:07.416Z,6.90
2023-03-31T12:04:41.278Z,9.55
2023-03-31T12:07:26.699Z,11.00
2023-03-31T12:10:19.876Z,6.03
2023-03-31T12:13:01.829Z,9.77
2023-03-31T12:15:33.617Z,10.40
2023-03-31T12:18:08.657Z,9.85
2023-03-31T12:20:42.779Z,8.75
2023-03-31T12:23:17.406Z,9.50
2023-03-31T12:26:22.919Z,8.65
2023-03-31T12:28:58.462Z,11.25
2023-03-31T12:31:28.352Z,8.95
2023-03-31T12:34:00.744Z,10.82
2023-03-31T12:36:56.710Z,12.32
2023-03-31T12:40:01.250Z,9.45
2023-03-31T12:43:02.011Z,9.40
2023-03-31T12:45:31.392Z,12.80
2023-03-31T12:48:26.258Z,11.13
2023-03-31T12:51:10.144Z,11.93
2023-03-31T12:54:14.357Z,6.43
2023-03-31T12:57:13.241Z,9.25
2023-03-31T12:59:44.740Z,5.93
2023-03-31T13:02:21.638Z,11.40
2023-03-31T13:04:50.156Z,8.23
2023-03-31T13:07:29.256Z,11.13
2023-03-31T13:10:18.886Z,7.65
2023-03-31T13:13:02.693Z,7.15
2023-03-31T13:15:30.740Z,9.27
2023-03-31T13:18:06.368Z,10.82
2023-03-31T13:20:37.546Z,6.05
2023-03-31T13:23:19.586Z,9.48
2023-03-31T13:25:49.231Z,10.50
2023-03-31T13:28:48.482Z,8.23
2023-03-31T13:31:15.861Z,7.00
2023-03-31T13:34:01.073Z,9.80
2023-03-31T13:36:34.067Z,8.85
2023-03-31T13:39:49.094Z,7.60
2023-03-31T13:42:37.521Z,8.93
2023-03-31T13:45:47.004Z,8.23
2023-03-31T13:48:34.845Z,7.60
2023-03-31T13:51:31.568Z,6.45
2023-03-31T13:56:58.784Z,4.85
2023-03-31T13:59:37.997Z,5.93
2023-03-31T14:02:23.694Z,8.57
2023-03-31T14:04:56.984Z,9.60
2023-03-31T14:07:40.863Z,9.48
2023-03-31T14:10:27.479Z,4.65
2023-03-31T14:13:08.721Z,6.93
2023-03-31T14:15:38.834Z,7.50
2023-03-31T14:18:07.487Z,5.93
2023-03-31T14:20:48.804Z,6.68
2023-03-31T14:23:31.920Z,7.40
2023-03-31T14:26:10.388Z,6.95
2023-03-31T14:29:11.211Z,7.97
2023-03-31T14:31:58.422Z,6.05
2023-03-31T14:34:43.125Z,7.63
2023-03-31T14:37:13.749Z,6.40
2023-03-31T14:39:44.482Z,5.38
2023-03-31T14:42:19.775Z,5.32
2023-03-31T14:44:48.571Z,6.30
2023-03-31T14:47:21.307Z,5.85
2023-03-31T14:49:58.921Z,5.78
2023-03-31T14:52:30.855Z,3.92
2023-03-31T14:54:59.723Z,4.93
2023-03-31T14:57:37.022Z,4.13
2023-03-31T15:00:08.383Z,5.65
2023-03-31T15:02:37.800Z,7.50
2023-03-31T15:05:07.650Z,3.92
2023-03-31T15:07:35.299Z,6.60
2023-03-31T15:10:04.979Z,5.45
2023-03-31T15:12:32.229Z,4.40
2023-03-31T15:15:04.380Z,4.00
2023-03-31T15:17:36.711Z,2.47
2023-03-31T15:20:36.512Z,3.17
2023-03-31T15:23:18.781Z,4.80
2023-03-31T15:25:45.949Z,2.40
2023-03-31T15:28:16.723Z,5.78
2023-03-31T15:30:46.639Z,3.42
2023-03-31T15:33:22.488Z,4.00
2023-03-31T15:35:49.552Z,3.05
2023-03-31T15:38:20.348Z,2.88
2023-03-31T15:40:55.972Z,4.20
2023-03-31T15:43:48.355Z,3.10
2023-03-31T15:46:39.895Z,3.42
2023-03-31T15:49:20.866Z,4.03
2023-03-31T15:51:48.456Z,2.10
2023-03-31T15:54:41.003Z,4.25
2023-03-31T15:57:09.440Z,1.80
2023-03-31T16:02:24.866Z,3.13
2023-03-31T16:04:56.982Z,2.33
2023-03-31T16:07:27.194Z,2.05
2023-03-31T16:09:56.933Z,1.42
2023-03-31T16:12:46.725Z,2.72
2023-03-31T16:15:28.321Z,2.80
2023-03-31T16:18:02.253Z,1.50
2023-03-31T16:20:37.046Z,2.53
2023-03-31T16:23:17.273Z,1.73
2023-03-31T16:25:44.887Z,2.92
2023-03-31T16:28:18.852Z,3.03
2023-03-31T16:30:46.375Z,2.20
2023-03-31T16:33:19.059Z,4.07
2023-03-31T16:35:56.146Z,4.15
2023-03-31T16:38:28.368Z,3.08
2023-03-31T16:40:57.399Z,2.97
2023-03-31T16:43:30.609Z,3.78
2023-03-31T16:46:03.478Z,3.40
2023-03-31T16:48:34.920Z,3.10
2023-03-31T16:53:31.645Z,4.32
2023-03-31T16:55:58.451Z,4.47
2023-03-31T16:58:26.314Z,4.82
2023-03-31T17:00:53.968Z,4.63
2023-03-31T17:03:21.345Z,4.72
2023-03-31T17:05:52.792Z,3.63
2023-03-31T17:08:21.655Z,6.32
2023-03-31T17:11:11.014Z,4.05
2023-03-31T17:13:39.492Z,4.22
2023-03-31T17:16:17.524Z,3.85
2023-03-31T17:18:49.068Z,4.32
2023-03-31T17:21:19.862Z,6.15
2023-03-31T17:23:46.847Z,4.70
2023-03-31T17:26:14.413Z,3.78
2023-03-31T17:28:41.642Z,5.05
2023-03-31T17:31:27.290Z,4.60
2023-03-31T17:33:54.096Z,5.32
2023-03-31T17:36:22.257Z,7.63
2023-03-31T17:38:49.383Z,5.25
2023-03-31T17:41:17.767Z,2.38
2023-03-31T17:43:46.935Z,5.25
2023-03-31T17:46:14.116Z,5.20
2023-03-31T17:48:41.960Z,4.57
2023-03-31T17:51:13.615Z,5.65
2023-03-31T17:53:42.487Z,5.57
2023-03-31T17:56:09.882Z,5.93
2023-03-31T17:58:36.793Z,4.65
2023-03-31T18:01:05.924Z,5.50
2023-03-31T18:03:33.218Z,8.93
2023-03-31T18:06:09.030Z,5.63
2023-03-31T18:08:36.100Z,5.70
2023-03-31T18:11:05.037Z,4.22
2023-03-31T18:13:33.372Z,5.70
2023-03-31T18:16:00.488Z,7.50
2023-03-31T18:18:29.126Z,5.32
2023-03-31T18:20:56.283Z,5.68
2023-03-31T18:23:23.650Z,7.40
2023-03-31T18:25:50.450Z,5.00
2023-03-31T18:28:19.062Z,5.70
2023-03-31T18:30:47.502Z,6.22
2023-03-31T18:33:14.962Z,7.00
2023-03-31T18:35:42.223Z,7.32
2023-03-31T18:38:09.862Z,4.68
2023-03-31T18:40:37.726Z,7.25
2023-03-31T18:43:05.857Z,7.68
2023-03-31T18:45:32.998Z,7.38
2023-03-31T18:48:00.045Z,6.50
2023-03-31T18:50:26.988Z,8.25
2023-03-31T18:52:54.690Z,9.15
2023-03-31T18:55:23.226Z,4.88
2023-03-31T18:57:50.355Z,7.13
2023-03-31T19:00:18.963Z,6.35
2023-03-31T19:02:46.062Z,7.93
2023-03-31T19:05:12.961Z,9.10
2023-03-31T19:07:40.828Z,10.20
2023-03-31T19:10:08.637Z,8.35
2023-03-31T19:12:35.418Z,8.43
2023-03-31T19:15:02.409Z,9.63
2023-03-31T19:17:29.472Z,8.82
2023-03-31T19:19:56.656Z,10.57
2023-03-31T19:22:25.427Z,12.23
2023-03-31T19:24:52.434Z,10.23
2023-03-31T19:27:19.196Z,9.20
2023-03-31T19:29:46.146Z,11.40
2023-03-31T19:32:13.019Z,9.52
2023-03-31T19:34:39.951Z,9.45
2023-03-31T19:37:06.942Z,10.43
2023-03-31T19:39:33.785Z,8.10
2023-03-31T19:42:01.596Z,13.27
2023-03-31T19:44:29.468Z,8.80
2023-03-31T19:46:58.724Z,10.88
2023-03-31T19:49:25.859Z,12.43
2023-03-31T19:51:52.965Z,14.68
2023-03-31T19:54:19.847Z,7.93
2023-03-31T19:56:47.528Z,11.07
2023-03-31T19:59:14.453Z,10.57
2023-03-31T20:01:41.461Z,10.32
2023-03-31T20:04:08.749Z,8.85
2023-03-31T20:06:35.724Z,10.93
2023-03-31T20:09:06.182Z,10.70
2023-03-31T20:11:33.325Z,10.18
2023-03-31T20:14:00.644Z,13.98
2023-03-31T20:16:29.825Z,9.75
2023-03-31T20:18:58.470Z,11.30
2023-03-31T20:21:27.593Z,12.02
2023-03-31T20:23:54.915Z,12.30
2023-03-31T20:26:25.092Z,13.38
2023-03-31T20:28:53.237Z,11.05
2023-03-31T20:31:23.606Z,13.70
2023-03-31T20:33:52.784Z,13.15
2023-03-31T20:36:32.206Z,10.95
2023-03-31T20:39:00.295Z,14.02
2023-03-31T20:41:29.797Z,11.50
2023-03-31T20:43:57.878Z,12.70
2023-03-31T20:46:25.138Z,14.68
2023-03-31T20:48:55.907Z,12.55
2023-03-31T20:51:28.979Z,10.20
2023-03-31T20:53:57.631Z,7.55
2023-03-31T20:56:30.763Z,7.78
2023-03-31T20:58:59.098Z,8.00
2023-03-31T21:01:32.601Z,6.78
2023-03-31T21:04:01.351Z,5.55
2023-03-31T21:06:40.536Z,5.32
2023-03-31T21:09:08.098Z,6.82
2023-03-31T21:11:34.787Z,6.28
2023-03-31T21:14:02.402Z,8.30
2023-03-31T21:16:29.188Z,6.70
2023-03-31T21:18:57.037Z,7.57
2023-03-31T21:21:25.017Z,9.48
2023-03-31T21:23:52.143Z,5.85
2023-03-31T21:26:19.677Z,5.80
2023-03-31T21:28:46.739Z,9.07
2023-03-31T21:31:17.154Z,7.15
2023-03-31T21:33:46.679Z,8.25
2023-03-31T21:36:18.760Z,9.73
2023-03-31T21:38:45.707Z,8.55
2023-03-31T21:41:15.920Z,14.45
2023-03-31T21:43:43.766Z,10.05
2023-03-31T21:46:16.480Z,12.65
2023-03-31T21:48:43.663Z,12.45
2023-03-31T21:51:11.813Z,13.57
2023-03-31T21:53:38.607Z,10.73
2023-03-31T21:56:05.526Z,9.23
2023-03-31T21:58:32.892Z,9.85
2023-03-31T22:01:04.095Z,10.45
2023-03-31T22:03:34.391Z,10.27
2023-03-31T22:06:04.361Z,9.82
2023-03-31T22:08:31.713Z,6.57
2023-03-31T22:11:00.481Z,5.47
2023-03-31T22:13:28.444Z,8.05
2023-03-31T22:15:56.352Z,6.22
2023-03-31T22:18:23.717Z,6.45
2023-03-31T22:20:50.816Z,6.32
2023-03-31T22:23:20.526Z,7.65
2023-03-31T22:25:47.874Z,5.28
2023-03-31T22:28:16.646Z,6.70
2023-03-31T22:30:44.014Z,4.07
2023-03-31T22:33:10.859Z,4.45
2023-03-31T22:35:37.741Z,3.05
2023-03-31T22:38:06.202Z,3.47
2023-03-31T22:40:34.656Z,3.78
2023-03-31T22:43:01.638Z,4.45
2023-03-31T22:45:28.543Z,3.88
2023-03-31T22:47:55.476Z,4.35
2023-03-31T22:50:23.449Z,4.50
2023-03-31T22:52:50.339Z,4.20
2023-03-31T22:55:17.236Z,4.03
2023-03-31T22:57:44.562Z,3.72
2023-03-31T23:00:12.997Z,3.80
2023-03-31T23:02:40.725Z,4.03
2023-03-31T23:05:08.072Z,3.92
2023-03-31T23:07:35.065Z,3.75
2023-03-31T23:10:02.085Z,5.15
2023-03-31T23:12:29.128Z,3.78
2023-03-31T23:14:56.084Z,5.18
2023-03-31T23:17:22.943Z,3.88
2023-03-31T23:19:49.852Z,4.60
2023-03-31T23:22:16.749Z,4.32
2023-03-31T23:24:43.564Z,4.45
2023-03-31T23:27:10.732Z,6.22
2023-03-31T23:29:37.617Z,4.88
2023-03-31T23:32:04.877Z,6.30
2023-03-31T23:34:31.719Z,4.68
2023-03-31T23:36:58.503Z,6.18
2023-03-31T23:39:25.680Z,6.03
2023-03-31T23:41:53.443Z,7.78
2023-03-31T23:44:20.350Z,6.35
2023-03-31T23:46:47.213Z,8.18
2023-03-31T23:49:14.291Z,8.35
2023-03-31T23:51:41.437Z,10.10
2023-03-31T23:54:08.315Z,8.05
2023-03-31T23:56:35.284Z,8.85
2023-03-31T23:59:02.192Z,8.40
